sensor_id;sensor_type;location;lat;lon;timestamp;P1;durP1;ratioP1;P2;durP2;ratioP2
82473;SDS011;72350;53.232;6.556;2024-01-15T00:00:09;29.88;;;9.43;;
82473;SDS011;72350;53.232;6.556;2024-01-15T00:02:37;29.65;;;9.10;;
82473;SDS011;72350;53.232;6.556;2024-01-15T00:05:05;12.73;;;4.40;;
82473;SDS011;72350;53.232;6.556;2024-01-15T00:07:33;10.10;;;2.85;;
82473;SDS011;72350;53.232;6.556;2024-01-15T00:10:01;7.15;;;1.92;;
82473;SDS011;72350;53.232;6.556;2024-01-15T00:12:30;32.80;;;10.40;;
82473;SDS011;72350;53.232;6.556;2024-01-15T00:14:58;10.07;;;3.60;;
82473;SDS011;72350;53.232;6.556;2024-01-15T00:17:26;14.75;;;4.20;;
82473;SDS011;72350;53.232;6.556;2024-01-15T00:19:54;7.97;;;2.20;;
82473;SDS011;72350;53.232;6.556;2024-01-15T00:22:23;9.75;;;3.33;;
82473;SDS011;72350;53.232;6.556;2024-01-15T00:24:52;11.77;;;4.25;;
82473;SDS011;72350;53.232;6.556;2024-01-15T00:27:20;10.68;;;3.22;;
82473;SDS011;72350;53.232;6.556;2024-01-15T00:29:49;6.65;;;2.10;;
82473;SDS011;72350;53.232;6.556;2024-01-15T00:32:18;23.33;;;8.05;;
82473;SDS011;72350;53.232;6.556;2024-01-15T00:34:46;24.98;;;8.65;;
82473;SDS011;72350;53.232;6.556;2024-01-15T00:37:14;12.27;;;4.20;;
82473;SDS011;72350;53.232;6.556;2024-01-15T00:39:42;10.38;;;2.80;;
82473;SDS011;72350;53.232;6.556;2024-01-15T00:42:10;11.05;;;3.25;;
82473;SDS011;72350;53.232;6.556;2024-01-15T00:44:38;16.00;;;5.72;;
82473;SDS011;72350;53.232;6.556;2024-01-15T00:47:07;15.48;;;4.75;;
82473;SDS011;72350;53.232;6.556;2024-01-15T00:49:35;10.20;;;2.92;;
82473;SDS011;72350;53.232;6.556;2024-01-15T00:52:03;20.33;;;7.35;;
82473;SDS011;72350;53.232;6.556;2024-01-15T00:54:31;16.67;;;5.03;;
82473;SDS011;72350;53.232;6.556;2024-01-15T00:56:59;18.58;;;6.28;;
82473;SDS011;72350;53.232;6.556;2024-01-15T00:59:27;16.88;;;5.15;;
82473;SDS011;72350;53.232;6.556;2024-01-15T01:01:55;16.08;;;4.35;;
82473;SDS011;72350;53.232;6.556;2024-01-15T01:04:24;14.93;;;3.88;;
82473;SDS011;72350;53.232;6.556;2024-01-15T01:06:52;14.52;;;2.28;;
82473;SDS011;72350;53.232;6.556;2024-01-15T01:09:20;16.02;;;2.97;;
82473;SDS011;72350;53.232;6.556;2024-01-15T01:11:47;12.15;;;3.25;;
82473;SDS011;72350;53.232;6.556;2024-01-15T01:14:15;11.85;;;2.03;;
82473;SDS011;72350;53.232;6.556;2024-01-15T01:16:43;18.80;;;4.97;;
82473;SDS011;72350;53.232;6.556;2024-01-15T01:19:11;13.93;;;2.83;;
82473;SDS011;72350;53.232;6.556;2024-01-15T01:21:41;13.32;;;3.38;;
82473;SDS011;72350;53.232;6.556;2024-01-15T01:24:09;17.83;;;2.00;;
82473;SDS011;72350;53.232;6.556;2024-01-15T01:26:37;23.63;;;3.05;;
82473;SDS011;72350;53.232;6.556;2024-01-15T01:29:05;14.07;;;2.53;;
82473;SDS011;72350;53.232;6.556;2024-01-15T01:31:33;31.45;;;10.77;;
82473;SDS011;72350;53.232;6.556;2024-01-15T01:34:01;14.43;;;3.20;;
82473;SDS011;72350;53.232;6.556;2024-01-15T01:36:31;19.35;;;4.97;;
82473;SDS011;72350;53.232;6.556;2024-01-15T01:39:00;16.50;;;2.70;;
82473;SDS011;72350;53.232;6.556;2024-01-15T01:41:28;24.98;;;2.95;;
82473;SDS011;72350;53.232;6.556;2024-01-15T01:43:56;16.55;;;2.45;;
82473;SDS011;72350;53.232;6.556;2024-01-15T01:46:24;9.20;;;1.65;;
82473;SDS011;72350;53.232;6.556;2024-01-15T01:48:54;15.55;;;2.22;;
82473;SDS011;72350;53.232;6.556;2024-01-15T01:51:23;10.52;;;2.80;;
82473;SDS011;72350;53.232;6.556;2024-01-15T01:53:52;12.02;;;3.83;;
82473;SDS011;72350;53.232;6.556;2024-01-15T01:56:21;12.25;;;2.15;;
82473;SDS011;72350;53.232;6.556;2024-01-15T01:58:49;18.45;;;2.67;;
82473;SDS011;72350;53.232;6.556;2024-01-15T02:01:17;13.27;;;3.78;;
82473;SDS011;72350;53.232;6.556;2024-01-15T02:03:46;17.10;;;3.08;;
82473;SDS011;72350;53.232;6.556;2024-01-15T02:06:14;13.77;;;1.92;;
82473;SDS011;72350;53.232;6.556;2024-01-15T02:08:42;9.85;;;2.40;;
82473;SDS011;72350;53.232;6.556;2024-01-15T02:11:11;17.63;;;2.88;;
82473;SDS011;72350;53.232;6.556;2024-01-15T02:13:40;11.55;;;2.40;;
82473;SDS011;72350;53.232;6.556;2024-01-15T02:16:08;21.63;;;3.60;;
82473;SDS011;72350;53.232;6.556;2024-01-15T02:18:40;17.90;;;4.05;;
82473;SDS011;72350;53.232;6.556;2024-01-15T02:21:08;18.05;;;3.63;;
82473;SDS011;72350;53.232;6.556;2024-01-15T02:23:38;23.38;;;3.15;;
82473;SDS011;72350;53.232;6.556;2024-01-15T02:26:07;17.05;;;2.67;;
82473;SDS011;72350;53.232;6.556;2024-01-15T02:28:35;11.75;;;2.20;;
82473;SDS011;72350;53.232;6.556;2024-01-15T02:31:03;14.10;;;3.90;;
82473;SDS011;72350;53.232;6.556;2024-01-15T02:33:31;19.90;;;3.00;;
82473;SDS011;72350;53.232;6.556;2024-01-15T02:35:59;18.00;;;3.03;;
82473;SDS011;72350;53.232;6.556;2024-01-15T02:38:27;9.82;;;2.25;;
82473;SDS011;72350;53.232;6.556;2024-01-15T02:40:56;17.88;;;2.58;;
82473;SDS011;72350;53.232;6.556;2024-01-15T02:43:24;6.68;;;1.92;;
82473;SDS011;72350;53.232;6.556;2024-01-15T02:45:52;7.25;;;1.63;;
82473;SDS011;72350;53.232;6.556;2024-01-15T02:48:20;9.40;;;1.58;;
82473;SDS011;72350;53.232;6.556;2024-01-15T02:50:48;9.77;;;2.22;;
82473;SDS011;72350;53.232;6.556;2024-01-15T02:53:17;7.38;;;1.48;;
82473;SDS011;72350;53.232;6.556;2024-01-15T02:55:45;9.50;;;1.38;;
82473;SDS011;72350;53.232;6.556;2024-01-15T02:58:14;10.68;;;1.88;;
82473;SDS011;72350;53.232;6.556;2024-01-15T03:00:42;10.45;;;1.48;;
82473;SDS011;72350;53.232;6.556;2024-01-15T03:03:11;7.20;;;1.38;;
82473;SDS011;72350;53.232;6.556;2024-01-15T03:05:39;7.43;;;1.40;;
82473;SDS011;72350;53.232;6.556;2024-01-15T03:08:08;10.68;;;1.98;;
82473;SDS011;72350;53.232;6.556;2024-01-15T03:10:36;10.35;;;1.52;;
82473;SDS011;72350;53.232;6.556;2024-01-15T03:13:04;9.45;;;2.28;;
82473;SDS011;72350;53.232;6.556;2024-01-15T03:15:34;9.77;;;1.30;;
82473;SDS011;72350;53.232;6.556;2024-01-15T03:18:02;9.68;;;1.77;;
82473;SDS011;72350;53.232;6.556;2024-01-15T03:20:31;7.65;;;2.20;;
82473;SDS011;72350;53.232;6.556;2024-01-15T03:23:00;10.07;;;1.88;;
82473;SDS011;72350;53.232;6.556;2024-01-15T03:25:29;9.02;;;1.50;;
82473;SDS011;72350;53.232;6.556;2024-01-15T03:27:57;12.85;;;1.52;;
82473;SDS011;72350;53.232;6.556;2024-01-15T03:30:25;16.08;;;3.25;;
82473;SDS011;72350;53.232;6.556;2024-01-15T03:32:55;13.80;;;2.30;;
82473;SDS011;72350;53.232;6.556;2024-01-15T03:35:24;10.13;;;2.38;;
82473;SDS011;72350;53.232;6.556;2024-01-15T03:37:56;13.10;;;2.58;;
82473;SDS011;72350;53.232;6.556;2024-01-15T03:40:24;18.35;;;2.05;;
82473;SDS011;72350;53.232;6.556;2024-01-15T03:42:53;15.65;;;2.80;;
82473;SDS011;72350;53.232;6.556;2024-01-15T03:45:21;12.48;;;2.53;;
82473;SDS011;72350;53.232;6.556;2024-01-15T03:47:51;21.48;;;2.70;;
82473;SDS011;72350;53.232;6.556;2024-01-15T03:50:21;16.10;;;2.60;;
82473;SDS011;72350;53.232;6.556;2024-01-15T03:52:49;12.77;;;2.17;;
82473;SDS011;72350;53.232;6.556;2024-01-15T03:55:17;10.13;;;2.03;;
82473;SDS011;72350;53.232;6.556;2024-01-15T03:57:45;19.27;;;2.60;;
82473;SDS011;72350;53.232;6.556;2024-01-15T04:00:14;12.30;;;2.72;;
82473;SDS011;72350;53.232;6.556;2024-01-15T04:02:44;13.93;;;2.03;;
82473;SDS011;72350;53.232;6.556;2024-01-15T04:05:12;15.00;;;3.50;;
82473;SDS011;72350;53.232;6.556;2024-01-15T04:07:41;13.30;;;2.63;;
82473;SDS011;72350;53.232;6.556;2024-01-15T04:10:09;15.18;;;2.05;;
82473;SDS011;72350;53.232;6.556;2024-01-15T04:12:38;14.20;;;1.95;;
82473;SDS011;72350;53.232;6.556;2024-01-15T04:15:06;11.18;;;1.83;;
82473;SDS011;72350;53.232;6.556;2024-01-15T04:17:35;8.32;;;1.75;;
82473;SDS011;72350;53.232;6.556;2024-01-15T04:20:03;9.77;;;2.20;;
82473;SDS011;72350;53.232;6.556;2024-01-15T04:22:31;14.48;;;2.13;;
82473;SDS011;72350;53.232;6.556;2024-01-15T04:25:00;9.10;;;1.92;;
82473;SDS011;72350;53.232;6.556;2024-01-15T04:27:28;8.60;;;1.95;;
82473;SDS011;72350;53.232;6.556;2024-01-15T04:29:56;7.90;;;1.63;;
82473;SDS011;72350;53.232;6.556;2024-01-15T04:32:24;8.77;;;1.20;;
82473;SDS011;72350;53.232;6.556;2024-01-15T04:34:53;7.38;;;1.20;;
82473;SDS011;72350;53.232;6.556;2024-01-15T04:37:20;6.32;;;1.35;;
82473;SDS011;72350;53.232;6.556;2024-01-15T04:39:49;5.10;;;1.20;;
82473;SDS011;72350;53.232;6.556;2024-01-15T04:42:20;7.50;;;1.10;;
82473;SDS011;72350;53.232;6.556;2024-01-15T04:44:48;5.72;;;1.05;;
82473;SDS011;72350;53.232;6.556;2024-01-15T04:47:16;5.40;;;1.30;;
82473;SDS011;72350;53.232;6.556;2024-01-15T04:49:44;7.28;;;1.52;;
82473;SDS011;72350;53.232;6.556;2024-01-15T04:52:12;6.97;;;1.10;;
82473;SDS011;72350;53.232;6.556;2024-01-15T04:54:39;11.35;;;1.25;;
82473;SDS011;72350;53.232;6.556;2024-01-15T04:57:07;9.50;;;1.00;;
82473;SDS011;72350;53.232;6.556;2024-01-15T04:59:36;5.10;;;1.00;;
82473;SDS011;72350;53.232;6.556;2024-01-15T05:02:04;5.80;;;0.70;;
82473;SDS011;72350;53.232;6.556;2024-01-15T05:04:32;4.47;;;0.70;;
82473;SDS011;72350;53.232;6.556;2024-01-15T05:07:00;6.28;;;0.80;;
82473;SDS011;72350;53.232;6.556;2024-01-15T05:09:28;2.75;;;0.70;;
82473;SDS011;72350;53.232;6.556;2024-01-15T05:11:58;7.28;;;1.20;;
82473;SDS011;72350;53.232;6.556;2024-01-15T05:14:26;5.95;;;1.77;;
82473;SDS011;72350;53.232;6.556;2024-01-15T05:16:55;9.95;;;1.25;;
82473;SDS011;72350;53.232;6.556;2024-01-15T05:19:23;10.75;;;1.92;;
82473;SDS011;72350;53.232;6.556;2024-01-15T05:21:52;12.68;;;1.50;;
82473;SDS011;72350;53.232;6.556;2024-01-15T05:24:20;14.50;;;1.48;;
82473;SDS011;72350;53.232;6.556;2024-01-15T05:26:48;9.57;;;1.55;;
82473;SDS011;72350;53.232;6.556;2024-01-15T05:29:15;11.65;;;1.58;;
82473;SDS011;72350;53.232;6.556;2024-01-15T05:31:44;4.93;;;1.20;;
82473;SDS011;72350;53.232;6.556;2024-01-15T05:34:12;7.32;;;1.38;;
82473;SDS011;72350;53.232;6.556;2024-01-15T05:36:40;12.35;;;2.05;;
82473;SDS011;72350;53.232;6.556;2024-01-15T05:39:08;5.68;;;1.20;;
82473;SDS011;72350;53.232;6.556;2024-01-15T05:41:36;8.13;;;1.40;;
82473;SDS011;72350;53.232;6.556;2024-01-15T05:44:04;12.45;;;1.90;;
82473;SDS011;72350;53.232;6.556;2024-01-15T05:46:32;9.15;;;1.40;;
82473;SDS011;72350;53.232;6.556;2024-01-15T05:48:59;9.10;;;1.88;;
82473;SDS011;72350;53.232;6.556;2024-01-15T05:51:29;9.75;;;1.92;;
82473;SDS011;72350;53.232;6.556;2024-01-15T05:53:58;9.00;;;1.40;;
82473;SDS011;72350;53.232;6.556;2024-01-15T05:56:26;12.18;;;1.63;;
82473;SDS011;72350;53.232;6.556;2024-01-15T05:58:53;6.68;;;1.80;;
82473;SDS011;72350;53.232;6.556;2024-01-15T06:01:21;13.13;;;2.53;;
82473;SDS011;72350;53.232;6.556;2024-01-15T06:03:49;8.25;;;1.83;;
82473;SDS011;72350;53.232;6.556;2024-01-15T06:06:17;11.75;;;2.00;;
82473;SDS011;72350;53.232;6.556;2024-01-15T06:08:47;10.98;;;2.30;;
82473;SDS011;72350;53.232;6.556;2024-01-15T06:11:15;10.82;;;2.30;;
82473;SDS011;72350;53.232;6.556;2024-01-15T06:13:43;12.38;;;2.53;;
82473;SDS011;72350;53.232;6.556;2024-01-15T06:16:14;14.57;;;2.35;;
82473;SDS011;72350;53.232;6.556;2024-01-15T06:18:43;12.38;;;2.58;;
82473;SDS011;72350;53.232;6.556;2024-01-15T06:21:11;10.55;;;2.13;;
82473;SDS011;72350;53.232;6.556;2024-01-15T06:23:41;17.67;;;2.33;;
82473;SDS011;72350;53.232;6.556;2024-01-15T06:26:12;17.67;;;2.70;;
82473;SDS011;72350;53.232;6.556;2024-01-15T06:28:41;16.13;;;2.45;;
82473;SDS011;72350;53.232;6.556;2024-01-15T06:31:09;17.45;;;2.38;;
82473;SDS011;72350;53.232;6.556;2024-01-15T06:33:37;14.30;;;2.00;;
82473;SDS011;72350;53.232;6.556;2024-01-15T06:36:06;12.20;;;2.20;;
82473;SDS011;72350;53.232;6.556;2024-01-15T06:38:35;15.50;;;4.05;;
82473;SDS011;72350;53.232;6.556;2024-01-15T06:41:03;14.45;;;3.72;;
82473;SDS011;72350;53.232;6.556;2024-01-15T06:43:32;21.30;;;5.13;;
82473;SDS011;72350;53.232;6.556;2024-01-15T06:46:00;12.52;;;4.28;;
82473;SDS011;72350;53.232;6.556;2024-01-15T06:48:33;16.27;;;2.92;;
82473;SDS011;72350;53.232;6.556;2024-01-15T06:51:01;15.55;;;2.70;;
82473;SDS011;72350;53.232;6.556;2024-01-15T06:53:28;12.63;;;2.33;;
82473;SDS011;72350;53.232;6.556;2024-01-15T06:55:56;12.93;;;2.08;;
82473;SDS011;72350;53.232;6.556;2024-01-15T06:58:24;17.25;;;6.32;;
82473;SDS011;72350;53.232;6.556;2024-01-15T07:00:54;16.05;;;4.47;;
82473;SDS011;72350;53.232;6.556;2024-01-15T07:03:22;11.48;;;3.03;;
82473;SDS011;72350;53.232;6.556;2024-01-15T07:05:50;21.35;;;5.82;;
82473;SDS011;72350;53.232;6.556;2024-01-15T07:08:18;15.18;;;5.15;;
82473;SDS011;72350;53.232;6.556;2024-01-15T07:10:47;9.10;;;2.20;;
82473;SDS011;72350;53.232;6.556;2024-01-15T07:13:15;17.25;;;5.30;;
82473;SDS011;72350;53.232;6.556;2024-01-15T07:15:43;16.15;;;4.40;;
82473;SDS011;72350;53.232;6.556;2024-01-15T07:18:12;13.55;;;3.25;;
82473;SDS011;72350;53.232;6.556;2024-01-15T07:20:40;10.55;;;2.20;;
82473;SDS011;72350;53.232;6.556;2024-01-15T07:23:08;10.48;;;2.35;;
82473;SDS011;72350;53.232;6.556;2024-01-15T07:25:36;8.25;;;1.40;;
82473;SDS011;72350;53.232;6.556;2024-01-15T07:28:04;13.73;;;2.88;;
82473;SDS011;72350;53.232;6.556;2024-01-15T07:30:32;13.30;;;1.77;;
82473;SDS011;72350;53.232;6.556;2024-01-15T07:33:01;11.95;;;2.40;;
82473;SDS011;72350;53.232;6.556;2024-01-15T07:35:32;6.05;;;1.20;;
82473;SDS011;72350;53.232;6.556;2024-01-15T07:38:01;8.02;;;1.58;;
82473;SDS011;72350;53.232;6.556;2024-01-15T07:40:29;7.90;;;1.70;;
82473;SDS011;72350;53.232;6.556;2024-01-15T07:42:57;5.72;;;1.50;;
82473;SDS011;72350;53.232;6.556;2024-01-15T07:45:25;10.73;;;2.20;;
82473;SDS011;72350;53.232;6.556;2024-01-15T07:47:53;12.40;;;3.38;;
82473;SDS011;72350;53.232;6.556;2024-01-15T07:50:21;10.77;;;2.45;;
82473;SDS011;72350;53.232;6.556;2024-01-15T07:52:51;15.48;;;3.83;;
82473;SDS011;72350;53.232;6.556;2024-01-15T07:55:19;17.27;;;4.35;;
82473;SDS011;72350;53.232;6.556;2024-01-15T07:57:47;5.82;;;2.00;;
82473;SDS011;72350;53.232;6.556;2024-01-15T08:00:28;4.57;;;1.50;;
82473;SDS011;72350;53.232;6.556;2024-01-15T08:02:56;10.98;;;2.53;;
82473;SDS011;72350;53.232;6.556;2024-01-15T08:05:23;11.10;;;2.30;;
82473;SDS011;72350;53.232;6.556;2024-01-15T08:07:53;10.73;;;3.30;;
82473;SDS011;72350;53.232;6.556;2024-01-15T08:10:24;10.25;;;2.72;;
82473;SDS011;72350;53.232;6.556;2024-01-15T08:12:52;13.75;;;3.92;;
82473;SDS011;72350;53.232;6.556;2024-01-15T08:15:20;11.88;;;2.95;;
82473;SDS011;72350;53.232;6.556;2024-01-15T08:17:48;12.02;;;2.10;;
82473;SDS011;72350;53.232;6.556;2024-01-15T08:20:17;13.10;;;2.40;;
82473;SDS011;72350;53.232;6.556;2024-01-15T08:22:45;12.00;;;2.00;;
82473;SDS011;72350;53.232;6.556;2024-01-15T08:25:16;9.18;;;2.15;;
82473;SDS011;72350;53.232;6.556;2024-01-15T08:27:43;9.52;;;1.70;;
82473;SDS011;72350;53.232;6.556;2024-01-15T08:30:12;10.35;;;2.75;;
82473;SDS011;72350;53.232;6.556;2024-01-15T08:32:41;7.80;;;1.70;;
82473;SDS011;72350;53.232;6.556;2024-01-15T08:35:09;12.30;;;1.60;;
82473;SDS011;72350;53.232;6.556;2024-01-15T08:37:37;14.43;;;1.73;;
82473;SDS011;72350;53.232;6.556;2024-01-15T08:40:06;12.75;;;2.78;;
82473;SDS011;72350;53.232;6.556;2024-01-15T08:42:36;8.63;;;2.30;;
82473;SDS011;72350;53.232;6.556;2024-01-15T08:45:04;11.25;;;2.70;;
82473;SDS011;72350;53.232;6.556;2024-01-15T08:47:32;12.27;;;2.47;;
82473;SDS011;72350;53.232;6.556;2024-01-15T08:50:00;8.02;;;1.77;;
82473;SDS011;72350;53.232;6.556;2024-01-15T08:52:29;19.20;;;4.57;;
82473;SDS011;72350;53.232;6.556;2024-01-15T08:54:57;13.73;;;3.25;;
82473;SDS011;72350;53.232;6.556;2024-01-15T08:57:25;11.73;;;2.65;;
82473;SDS011;72350;53.232;6.556;2024-01-15T08:59:54;8.27;;;1.50;;
82473;SDS011;72350;53.232;6.556;2024-01-15T09:02:22;12.23;;;2.67;;
82473;SDS011;72350;53.232;6.556;2024-01-15T09:04:49;7.38;;;1.77;;
82473;SDS011;72350;53.232;6.556;2024-01-15T09:07:18;6.65;;;1.27;;
82473;SDS011;72350;53.232;6.556;2024-01-15T09:09:46;10.60;;;2.03;;
82473;SDS011;72350;53.232;6.556;2024-01-15T09:12:14;8.82;;;1.38;;
82473;SDS011;72350;53.232;6.556;2024-01-15T09:14:43;7.75;;;2.22;;
82473;SDS011;72350;53.232;6.556;2024-01-15T09:17:12;6.80;;;1.73;;
82473;SDS011;72350;53.232;6.556;2024-01-15T09:19:40;4.22;;;1.42;;
82473;SDS011;72350;53.232;6.556;2024-01-15T09:22:08;7.05;;;1.13;;
82473;SDS011;72350;53.232;6.556;2024-01-15T09:24:36;11.85;;;2.53;;
82473;SDS011;72350;53.232;6.556;2024-01-15T09:27:04;9.38;;;1.60;;
82473;SDS011;72350;53.232;6.556;2024-01-15T09:29:32;6.03;;;1.50;;
82473;SDS011;72350;53.232;6.556;2024-01-15T09:32:00;5.93;;;1.98;;
82473;SDS011;72350;53.232;6.556;2024-01-15T09:34:31;6.03;;;1.42;;
82473;SDS011;72350;53.232;6.556;2024-01-15T09:36:59;9.38;;;1.50;;
82473;SDS011;72350;53.232;6.556;2024-01-15T09:39:27;7.22;;;1.58;;
82473;SDS011;72350;53.232;6.556;2024-01-15T09:41:55;3.97;;;1.10;;
82473;SDS011;72350;53.232;6.556;2024-01-15T09:44:23;5.82;;;1.33;;
82473;SDS011;72350;53.232;6.556;2024-01-15T09:46:53;11.73;;;2.17;;
82473;SDS011;72350;53.232;6.556;2024-01-15T09:49:22;12.85;;;2.17;;
82473;SDS011;72350;53.232;6.556;2024-01-15T09:51:52;13.20;;;1.55;;
82473;SDS011;72350;53.232;6.556;2024-01-15T09:54:31;10.35;;;1.83;;
82473;SDS011;72350;53.232;6.556;2024-01-15T09:57:00;5.72;;;1.20;;
82473;SDS011;72350;53.232;6.556;2024-01-15T09:59:29;7.65;;;2.10;;
82473;SDS011;72350;53.232;6.556;2024-01-15T10:01:58;7.68;;;1.67;;
82473;SDS011;72350;53.232;6.556;2024-01-15T10:04:29;9.35;;;1.58;;
82473;SDS011;72350;53.232;6.556;2024-01-15T10:06:58;8.00;;;1.35;;
82473;SDS011;72350;53.232;6.556;2024-01-15T10:09:28;10.98;;;1.92;;
82473;SDS011;72350;53.232;6.556;2024-01-15T10:11:56;13.27;;;3.10;;
82473;SDS011;72350;53.232;6.556;2024-01-15T10:14:24;9.63;;;1.80;;
82473;SDS011;72350;53.232;6.556;2024-01-15T10:16:52;11.05;;;2.17;;
82473;SDS011;72350;53.232;6.556;2024-01-15T10:19:22;7.78;;;1.30;;
82473;SDS011;72350;53.232;6.556;2024-01-15T10:21:51;6.53;;;0.98;;
82473;SDS011;72350;53.232;6.556;2024-01-15T10:24:20;10.65;;;1.42;;
82473;SDS011;72350;53.232;6.556;2024-01-15T10:26:48;7.85;;;1.48;;
82473;SDS011;72350;53.232;6.556;2024-01-15T10:29:16;12.15;;;1.73;;
82473;SDS011;72350;53.232;6.556;2024-01-15T10:31:44;8.65;;;1.55;;
82473;SDS011;72350;53.232;6.556;2024-01-15T10:34:12;7.07;;;1.00;;
82473;SDS011;72350;53.232;6.556;2024-01-15T10:36:45;8.80;;;1.58;;
82473;SDS011;72350;53.232;6.556;2024-01-15T10:39:14;6.80;;;1.40;;
82473;SDS011;72350;53.232;6.556;2024-01-15T10:41:44;5.22;;;1.10;;
82473;SDS011;72350;53.232;6.556;2024-01-15T10:44:12;8.85;;;1.50;;
82473;SDS011;72350;53.232;6.556;2024-01-15T10:46:40;7.40;;;1.25;;
82473;SDS011;72350;53.232;6.556;2024-01-15T10:49:08;10.07;;;2.50;;
82473;SDS011;72350;53.232;6.556;2024-01-15T10:51:38;6.47;;;2.00;;
82473;SDS011;72350;53.232;6.556;2024-01-15T10:54:08;4.18;;;0.90;;
82473;SDS011;72350;53.232;6.556;2024-01-15T10:56:38;4.85;;;0.90;;
82473;SDS011;72350;53.232;6.556;2024-01-15T10:59:08;3.70;;;0.90;;
82473;SDS011;72350;53.232;6.556;2024-01-15T11:01:36;2.88;;;0.90;;
82473;SDS011;72350;53.232;6.556;2024-01-15T11:04:05;1.80;;;0.80;;
82473;SDS011;72350;53.232;6.556;2024-01-15T11:06:40;1.95;;;0.90;;
82473;SDS011;72350;53.232;6.556;2024-01-15T11:09:10;3.05;;;1.00;;
82473;SDS011;72350;53.232;6.556;2024-01-15T11:11:43;3.20;;;0.70;;
82473;SDS011;72350;53.232;6.556;2024-01-15T11:17:03;5.55;;;1.38;;
82473;SDS011;72350;53.232;6.556;2024-01-15T11:19:38;6.15;;;0.90;;
82473;SDS011;72350;53.232;6.556;2024-01-15T11:22:10;5.65;;;1.00;;
82473;SDS011;72350;53.232;6.556;2024-01-15T11:25:01;4.80;;;0.80;;
82473;SDS011;72350;53.232;6.556;2024-01-15T11:27:39;5.40;;;1.00;;
82473;SDS011;72350;53.232;6.556;2024-01-15T11:30:09;5.10;;;0.77;;
82473;SDS011;72350;53.232;6.556;2024-01-15T11:32:40;6.75;;;0.70;;
82473;SDS011;72350;53.232;6.556;2024-01-15T11:35:09;3.40;;;0.80;;
82473;SDS011;72350;53.232;6.556;2024-01-15T11:37:56;4.05;;;1.40;;
82473;SDS011;72350;53.232;6.556;2024-01-15T11:43:10;2.75;;;0.70;;
82473;SDS011;72350;53.232;6.556;2024-01-15T11:45:43;4.93;;;1.15;;
82473;SDS011;72350;53.232;6.556;2024-01-15T11:48:12;5.97;;;1.95;;
82473;SDS011;72350;53.232;6.556;2024-01-15T11:50:43;4.68;;;0.95;;
82473;SDS011;72350;53.232;6.556;2024-01-15T11:53:16;3.65;;;1.48;;
82473;SDS011;72350;53.232;6.556;2024-01-15T11:55:46;3.88;;;0.90;;
82473;SDS011;72350;53.232;6.556;2024-01-15T11:58:15;3.05;;;0.73;;
82473;SDS011;72350;53.232;6.556;2024-01-15T12:00:45;4.80;;;0.73;;
82473;SDS011;72350;53.232;6.556;2024-01-15T12:03:16;3.35;;;0.85;;
82473;SDS011;72350;53.232;6.556;2024-01-15T12:05:44;3.05;;;0.65;;
82473;SDS011;72350;53.232;6.556;2024-01-15T12:08:12;3.45;;;0.70;;
82473;SDS011;72350;53.232;6.556;2024-01-15T12:10:40;5.55;;;0.68;;
82473;SDS011;72350;53.232;6.556;2024-01-15T12:13:10;2.72;;;0.70;;
82473;SDS011;72350;53.232;6.556;2024-01-15T12:15:40;3.50;;;0.60;;
82473;SDS011;72350;53.232;6.556;2024-01-15T12:18:11;4.05;;;0.82;;
82473;SDS011;72350;53.232;6.556;2024-01-15T12:20:42;4.82;;;0.70;;
82473;SDS011;72350;53.232;6.556;2024-01-15T12:23:11;18.15;;;1.60;;
82473;SDS011;72350;53.232;6.556;2024-01-15T12:25:39;7.65;;;1.25;;
82473;SDS011;72350;53.232;6.556;2024-01-15T12:28:08;6.80;;;1.33;;
82473;SDS011;72350;53.232;6.556;2024-01-15T12:30:36;7.03;;;0.95;;
82473;SDS011;72350;53.232;6.556;2024-01-15T12:33:05;6.13;;;0.75;;
82473;SDS011;72350;53.232;6.556;2024-01-15T12:35:36;4.95;;;1.10;;
82473;SDS011;72350;53.232;6.556;2024-01-15T12:38:05;4.07;;;1.27;;
82473;SDS011;72350;53.232;6.556;2024-01-15T12:40:33;4.50;;;1.10;;
82473;SDS011;72350;53.232;6.556;2024-01-15T12:43:03;4.50;;;1.05;;
82473;SDS011;72350;53.232;6.556;2024-01-15T12:45:33;14.95;;;1.20;;
82473;SDS011;72350;53.232;6.556;2024-01-15T12:48:04;6.68;;;1.40;;
82473;SDS011;72350;53.232;6.556;2024-01-15T12:50:33;7.97;;;1.27;;
82473;SDS011;72350;53.232;6.556;2024-01-15T12:53:03;5.18;;;1.38;;
82473;SDS011;72350;53.232;6.556;2024-01-15T12:55:31;10.50;;;1.30;;
82473;SDS011;72350;53.232;6.556;2024-01-15T12:58:01;10.35;;;1.73;;
82473;SDS011;72350;53.232;6.556;2024-01-15T13:00:29;16.60;;;1.52;;
82473;SDS011;72350;53.232;6.556;2024-01-15T13:02:57;11.02;;;1.40;;
82473;SDS011;72350;53.232;6.556;2024-01-15T13:05:26;8.65;;;1.50;;
82473;SDS011;72350;53.232;6.556;2024-01-15T13:07:56;9.65;;;1.48;;
82473;SDS011;72350;53.232;6.556;2024-01-15T13:10:26;7.70;;;1.63;;
82473;SDS011;72350;53.232;6.556;2024-01-15T13:12:56;7.03;;;1.25;;
82473;SDS011;72350;53.232;6.556;2024-01-15T13:15:24;12.02;;;2.13;;
82473;SDS011;72350;53.232;6.556;2024-01-15T13:17:53;15.05;;;2.97;;
82473;SDS011;72350;53.232;6.556;2024-01-15T13:20:21;14.77;;;2.03;;
82473;SDS011;72350;53.232;6.556;2024-01-15T13:22:49;13.55;;;2.15;;
82473;SDS011;72350;53.232;6.556;2024-01-15T13:25:17;13.82;;;2.47;;
82473;SDS011;72350;53.232;6.556;2024-01-15T13:27:46;9.63;;;1.40;;
82473;SDS011;72350;53.232;6.556;2024-01-15T13:30:14;11.10;;;2.28;;
82473;SDS011;72350;53.232;6.556;2024-01-15T13:32:42;14.13;;;1.55;;
82473;SDS011;72350;53.232;6.556;2024-01-15T13:35:10;7.15;;;1.48;;
82473;SDS011;72350;53.232;6.556;2024-01-15T13:37:40;14.85;;;2.10;;
82473;SDS011;72350;53.232;6.556;2024-01-15T13:40:09;8.77;;;2.05;;
82473;SDS011;72350;53.232;6.556;2024-01-15T13:42:45;10.00;;;1.52;;
82473;SDS011;72350;53.232;6.556;2024-01-15T13:45:14;7.53;;;1.10;;
82473;SDS011;72350;53.232;6.556;2024-01-15T13:47:42;8.60;;;2.00;;
82473;SDS011;72350;53.232;6.556;2024-01-15T13:50:11;8.07;;;1.23;;
82473;SDS011;72350;53.232;6.556;2024-01-15T13:52:39;5.57;;;0.60;;
82473;SDS011;72350;53.232;6.556;2024-01-15T13:55:07;10.07;;;1.20;;
82473;SDS011;72350;53.232;6.556;2024-01-15T13:57:36;4.72;;;0.98;;
82473;SDS011;72350;53.232;6.556;2024-01-15T14:00:06;5.97;;;0.95;;
82473;SDS011;72350;53.232;6.556;2024-01-15T14:02:39;4.68;;;1.25;;
82473;SDS011;72350;53.232;6.556;2024-01-15T14:05:07;4.53;;;0.80;;
82473;SDS011;72350;53.232;6.556;2024-01-15T14:07:35;9.48;;;1.38;;
82473;SDS011;72350;53.232;6.556;2024-01-15T14:10:03;9.68;;;1.13;;
82473;SDS011;72350;53.232;6.556;2024-01-15T14:12:32;8.65;;;1.65;;
82473;SDS011;72350;53.232;6.556;2024-01-15T14:15:01;8.23;;;1.65;;
82473;SDS011;72350;53.232;6.556;2024-01-15T14:17:30;12.52;;;1.73;;
82473;SDS011;72350;53.232;6.556;2024-01-15T14:19:58;6.93;;;1.42;;
82473;SDS011;72350;53.232;6.556;2024-01-15T14:22:26;8.40;;;1.40;;
82473;SDS011;72350;53.232;6.556;2024-01-15T14:24:54;5.15;;;1.17;;
82473;SDS011;72350;53.232;6.556;2024-01-15T14:27:22;8.07;;;1.50;;
82473;SDS011;72350;53.232;6.556;2024-01-15T14:29:50;10.50;;;1.52;;
82473;SDS011;72350;53.232;6.556;2024-01-15T14:32:18;6.18;;;1.73;;
82473;SDS011;72350;53.232;6.556;2024-01-15T14:34:47;4.45;;;0.73;;
82473;SDS011;72350;53.232;6.556;2024-01-15T14:37:15;3.42;;;0.82;;
82473;SDS011;72350;53.232;6.556;2024-01-15T14:39:43;5.70;;;0.90;;
82473;SDS011;72350;53.232;6.556;2024-01-15T14:42:11;2.95;;;1.00;;
82473;SDS011;72350;53.232;6.556;2024-01-15T14:44:39;4.32;;;1.00;;
82473;SDS011;72350;53.232;6.556;2024-01-15T14:47:07;5.47;;;1.00;;
82473;SDS011;72350;53.232;6.556;2024-01-15T14:49:35;2.22;;;0.80;;
82473;SDS011;72350;53.232;6.556;2024-01-15T14:52:05;3.53;;;1.00;;
82473;SDS011;72350;53.232;6.556;2024-01-15T14:54:33;5.40;;;1.00;;